Etusivu
METAR-TAF:

METAR-TAF

Lentoasemat :

Tacoma Narrows Airport

Tacoma, Washington, Yhdysvallat

Leveyspiiri: 47-16-03N, Pituuspiiri: 122-34-34W, korkeus merenpinnasta: 96 m

Tämänhetkinen sää

Tämä raportti tehtiin 41 minuuttia sitten, kello 15.53 UTC
Tuuli 3 kn lännestä/luoteesta
Lämpötila 12°C
Kosteus 94%
Ilmanpaine 1007 hPa
Näkyvyys: 16.1 km
Hajonneita pilviä 400 ft:n korkeudessa
Pilvistä 7000 ft:n korkeudessa

METAR: KTIW 191553Z 29003KT 10SM BKN004 OVC070 12/11 A2975 RMK AO2 RAB16E42 SLP073 P0000 T01220111

Aika: 09:34 (16:34 UTC)


TAF: puuttuu

Säähavainnot ja -ennusteet yli 4000 lentoasemalta (METAR- ja TAF-raportit).

Käytössä olevat sääasemat on merkitty karttaan keltaisilla ja punaisilla pisteillä.

Aseta hiiri pisteen päälle nähdäksesi sääaseman nimen.

Klikkaa sitten nähdäksesi säähavainnot ja -ennusteet.

Kartan vaihtaminen: klikkaa mustalla rastilla varustettuja vihreitä pisteitä, niin voit zoomata sisään; viivalla varustettua vihreää pistettä, niin voit zoomata ulos tai vihreitä nuolia, niin pääset viereisille kartoille.


METAR-TAF: